sensor_id;sensor_type;location;lat;lon;timestamp;P1;durP1;ratioP1;P2;durP2;ratioP2
21107;SDS011;10712;52.944;9.098;2022-07-23T00:02:07;1.50;;;1.20;;
21107;SDS011;10712;52.944;9.098;2022-07-23T00:04:33;2.70;;;1.00;;
21107;SDS011;10712;52.944;9.098;2022-07-23T00:06:59;3.05;;;1.52;;
21107;SDS011;10712;52.944;9.098;2022-07-23T00:09:25;3.47;;;1.80;;
21107;SDS011;10712;52.944;9.098;2022-07-23T00:11:51;3.35;;;1.50;;
21107;SDS011;10712;52.944;9.098;2022-07-23T00:14:17;3.75;;;1.70;;
21107;SDS011;10712;52.944;9.098;2022-07-23T00:16:43;2.22;;;1.63;;
21107;SDS011;10712;52.944;9.098;2022-07-23T00:19:09;4.15;;;1.80;;
21107;SDS011;10712;52.944;9.098;2022-07-23T00:21:34;3.35;;;1.85;;
21107;SDS011;10712;52.944;9.098;2022-07-23T00:24:00;1.40;;;1.30;;
21107;SDS011;10712;52.944;9.098;2022-07-23T00:26:26;4.05;;;1.60;;
21107;SDS011;10712;52.944;9.098;2022-07-23T00:28:52;4.20;;;1.92;;
21107;SDS011;10712;52.944;9.098;2022-07-23T00:31:18;2.67;;;1.95;;
21107;SDS011;10712;52.944;9.098;2022-07-23T00:33:43;1.63;;;1.52;;
21107;SDS011;10712;52.944;9.098;2022-07-23T00:36:10;2.92;;;1.40;;
21107;SDS011;10712;52.944;9.098;2022-07-23T00:38:35;1.70;;;1.30;;
21107;SDS011;10712;52.944;9.098;2022-07-23T00:41:01;1.35;;;1.17;;
21107;SDS011;10712;52.944;9.098;2022-07-23T00:43:27;1.33;;;1.23;;
21107;SDS011;10712;52.944;9.098;2022-07-23T00:45:53;1.45;;;1.35;;
21107;SDS011;10712;52.944;9.098;2022-07-23T00:48:19;3.97;;;1.75;;
21107;SDS011;10712;52.944;9.098;2022-07-23T00:50:45;3.35;;;1.73;;
21107;SDS011;10712;52.944;9.098;2022-07-23T00:53:12;1.30;;;1.15;;
21107;SDS011;10712;52.944;9.098;2022-07-23T00:55:39;2.45;;;1.20;;
21107;SDS011;10712;52.944;9.098;2022-07-23T00:58:05;1.08;;;0.95;;
21107;SDS011;10712;52.944;9.098;2022-07-23T01:00:31;3.35;;;1.48;;
21107;SDS011;10712;52.944;9.098;2022-07-23T01:02:57;2.50;;;1.20;;
21107;SDS011;10712;52.944;9.098;2022-07-23T01:05:23;4.60;;;1.92;;
21107;SDS011;10712;52.944;9.098;2022-07-23T01:07:50;4.07;;;2.25;;
21107;SDS011;10712;52.944;9.098;2022-07-23T01:10:17;3.10;;;2.25;;
21107;SDS011;10712;52.944;9.098;2022-07-23T01:12:56;3.78;;;1.80;;
21107;SDS011;10712;52.944;9.098;2022-07-23T01:15:40;6.00;;;2.17;;
21107;SDS011;10712;52.944;9.098;2022-07-23T01:18:07;2.88;;;2.25;;
21107;SDS011;10712;52.944;9.098;2022-07-23T01:20:35;4.03;;;2.17;;
21107;SDS011;10712;52.944;9.098;2022-07-23T01:23:02;2.08;;;1.88;;
21107;SDS011;10712;52.944;9.098;2022-07-23T01:25:28;4.90;;;2.40;;
21107;SDS011;10712;52.944;9.098;2022-07-23T01:28:02;4.68;;;2.55;;
21107;SDS011;10712;52.944;9.098;2022-07-23T01:30:28;2.40;;;2.20;;
21107;SDS011;10712;52.944;9.098;2022-07-23T01:32:55;3.67;;;1.98;;
21107;SDS011;10712;52.944;9.098;2022-07-23T01:35:22;3.70;;;2.20;;
21107;SDS011;10712;52.944;9.098;2022-07-23T01:37:49;2.38;;;1.50;;
21107;SDS011;10712;52.944;9.098;2022-07-23T01:40:17;2.88;;;2.10;;
21107;SDS011;10712;52.944;9.098;2022-07-23T01:42:43;2.40;;;1.58;;
21107;SDS011;10712;52.944;9.098;2022-07-23T01:45:10;1.30;;;1.20;;
21107;SDS011;10712;52.944;9.098;2022-07-23T01:47:40;1.75;;;1.65;;
21107;SDS011;10712;52.944;9.098;2022-07-23T01:50:06;1.73;;;1.50;;
21107;SDS011;10712;52.944;9.098;2022-07-23T01:52:46;1.20;;;1.10;;
21107;SDS011;10712;52.944;9.098;2022-07-23T01:55:12;2.47;;;1.60;;
21107;SDS011;10712;52.944;9.098;2022-07-23T01:57:41;1.83;;;1.65;;
21107;SDS011;10712;52.944;9.098;2022-07-23T02:00:08;1.80;;;1.70;;
21107;SDS011;10712;52.944;9.098;2022-07-23T02:02:46;2.65;;;1.73;;
21107;SDS011;10712;52.944;9.098;2022-07-23T02:05:12;3.08;;;2.75;;
21107;SDS011;10712;52.944;9.098;2022-07-23T02:07:37;2.38;;;1.92;;
21107;SDS011;10712;52.944;9.098;2022-07-23T02:10:03;2.75;;;2.08;;
21107;SDS011;10712;52.944;9.098;2022-07-23T02:12:30;2.72;;;1.92;;
21107;SDS011;10712;52.944;9.098;2022-07-23T02:14:56;3.85;;;2.90;;
21107;SDS011;10712;52.944;9.098;2022-07-23T02:17:24;3.83;;;2.30;;
21107;SDS011;10712;52.944;9.098;2022-07-23T02:19:49;7.10;;;3.83;;
21107;SDS011;10712;52.944;9.098;2022-07-23T02:22:15;3.67;;;2.42;;
21107;SDS011;10712;52.944;9.098;2022-07-23T02:24:41;4.30;;;2.63;;
21107;SDS011;10712;52.944;9.098;2022-07-23T02:27:08;3.72;;;2.50;;
21107;SDS011;10712;52.944;9.098;2022-07-23T02:29:34;6.28;;;3.30;;
21107;SDS011;10712;52.944;9.098;2022-07-23T02:32:00;4.47;;;3.28;;
21107;SDS011;10712;52.944;9.098;2022-07-23T02:34:26;2.85;;;2.40;;
21107;SDS011;10712;52.944;9.098;2022-07-23T02:36:52;3.50;;;2.78;;
21107;SDS011;10712;52.944;9.098;2022-07-23T02:39:19;4.38;;;2.80;;
21107;SDS011;10712;52.944;9.098;2022-07-23T02:41:45;2.50;;;2.30;;
21107;SDS011;10712;52.944;9.098;2022-07-23T02:44:11;4.18;;;3.30;;
21107;SDS011;10712;52.944;9.098;2022-07-23T02:46:37;4.00;;;2.53;;
21107;SDS011;10712;52.944;9.098;2022-07-23T02:49:03;2.70;;;2.47;;
21107;SDS011;10712;52.944;9.098;2022-07-23T02:51:30;2.65;;;2.28;;
21107;SDS011;10712;52.944;9.098;2022-07-23T02:54:01;1.90;;;1.80;;
21107;SDS011;10712;52.944;9.098;2022-07-23T02:56:27;6.78;;;4.07;;
21107;SDS011;10712;52.944;9.098;2022-07-23T02:58:52;3.97;;;2.60;;
21107;SDS011;10712;52.944;9.098;2022-07-23T03:01:19;3.20;;;2.95;;
21107;SDS011;10712;52.944;9.098;2022-07-23T03:03:45;3.15;;;2.85;;
21107;SDS011;10712;52.944;9.098;2022-07-23T03:06:11;4.60;;;2.78;;
21107;SDS011;10712;52.944;9.098;2022-07-23T03:08:38;3.38;;;2.60;;
21107;SDS011;10712;52.944;9.098;2022-07-23T03:11:04;4.68;;;3.05;;
21107;SDS011;10712;52.944;9.098;2022-07-23T03:13:37;4.65;;;3.75;;
21107;SDS011;10712;52.944;9.098;2022-07-23T03:16:04;4.47;;;3.17;;
21107;SDS011;10712;52.944;9.098;2022-07-23T03:18:30;4.43;;;3.70;;
21107;SDS011;10712;52.944;9.098;2022-07-23T03:20:56;5.00;;;4.40;;
21107;SDS011;10712;52.944;9.098;2022-07-23T03:23:22;3.20;;;2.90;;
21107;SDS011;10712;52.944;9.098;2022-07-23T03:25:48;3.45;;;2.65;;
21107;SDS011;10712;52.944;9.098;2022-07-23T03:28:15;5.97;;;3.05;;
21107;SDS011;10712;52.944;9.098;2022-07-23T03:30:45;5.07;;;4.40;;
21107;SDS011;10712;52.944;9.098;2022-07-23T03:33:17;6.80;;;4.28;;
21107;SDS011;10712;52.944;9.098;2022-07-23T03:35:45;4.13;;;3.50;;
21107;SDS011;10712;52.944;9.098;2022-07-23T03:38:23;3.88;;;3.47;;
21107;SDS011;10712;52.944;9.098;2022-07-23T03:40:49;5.50;;;3.83;;
21107;SDS011;10712;52.944;9.098;2022-07-23T03:43:15;7.22;;;4.05;;
21107;SDS011;10712;52.944;9.098;2022-07-23T03:45:40;6.20;;;3.58;;
21107;SDS011;10712;52.944;9.098;2022-07-23T03:48:07;3.35;;;3.15;;
21107;SDS011;10712;52.944;9.098;2022-07-23T03:50:33;5.28;;;2.88;;
21107;SDS011;10712;52.944;9.098;2022-07-23T03:52:59;6.38;;;3.92;;
21107;SDS011;10712;52.944;9.098;2022-07-23T03:55:25;4.88;;;3.00;;
21107;SDS011;10712;52.944;9.098;2022-07-23T03:57:51;3.42;;;3.10;;
21107;SDS011;10712;52.944;9.098;2022-07-23T04:00:17;3.30;;;3.00;;
21107;SDS011;10712;52.944;9.098;2022-07-23T04:02:47;6.82;;;4.00;;
21107;SDS011;10712;52.944;9.098;2022-07-23T04:05:13;5.35;;;3.63;;
21107;SDS011;10712;52.944;9.098;2022-07-23T04:07:42;6.95;;;4.15;;
21107;SDS011;10712;52.944;9.098;2022-07-23T04:10:08;6.85;;;4.97;;
21107;SDS011;10712;52.944;9.098;2022-07-23T04:12:34;5.55;;;5.00;;
21107;SDS011;10712;52.944;9.098;2022-07-23T04:15:01;7.03;;;4.85;;
21107;SDS011;10712;52.944;9.098;2022-07-23T04:17:28;6.53;;;4.15;;
21107;SDS011;10712;52.944;9.098;2022-07-23T04:19:54;6.45;;;3.45;;
21107;SDS011;10712;52.944;9.098;2022-07-23T04:22:22;3.70;;;3.20;;
21107;SDS011;10712;52.944;9.098;2022-07-23T04:24:48;5.50;;;4.53;;
21107;SDS011;10712;52.944;9.098;2022-07-23T04:27:15;3.70;;;3.38;;
21107;SDS011;10712;52.944;9.098;2022-07-23T04:29:41;2.83;;;2.45;;
21107;SDS011;10712;52.944;9.098;2022-07-23T04:32:07;3.80;;;3.42;;
21107;SDS011;10712;52.944;9.098;2022-07-23T04:34:33;4.78;;;3.17;;
21107;SDS011;10712;52.944;9.098;2022-07-23T04:36:59;6.22;;;3.65;;
21107;SDS011;10712;52.944;9.098;2022-07-23T04:39:27;4.45;;;3.80;;
21107;SDS011;10712;52.944;9.098;2022-07-23T04:41:53;3.22;;;2.85;;
21107;SDS011;10712;52.944;9.098;2022-07-23T04:44:19;3.30;;;3.00;;
21107;SDS011;10712;52.944;9.098;2022-07-23T04:46:46;4.13;;;3.72;;
21107;SDS011;10712;52.944;9.098;2022-07-23T04:49:12;5.75;;;3.88;;
21107;SDS011;10712;52.944;9.098;2022-07-23T04:51:38;4.57;;;3.60;;
21107;SDS011;10712;52.944;9.098;2022-07-23T04:54:04;4.75;;;4.25;;
21107;SDS011;10712;52.944;9.098;2022-07-23T04:56:30;7.05;;;3.63;;
21107;SDS011;10712;52.944;9.098;2022-07-23T04:58:56;9.27;;;4.35;;
21107;SDS011;10712;52.944;9.098;2022-07-23T05:01:22;4.72;;;3.97;;
21107;SDS011;10712;52.944;9.098;2022-07-23T05:03:48;4.20;;;3.80;;
21107;SDS011;10712;52.944;9.098;2022-07-23T05:06:14;5.10;;;3.28;;
21107;SDS011;10712;52.944;9.098;2022-07-23T05:08:41;6.40;;;5.10;;
21107;SDS011;10712;52.944;9.098;2022-07-23T05:11:09;9.35;;;4.63;;
21107;SDS011;10712;52.944;9.098;2022-07-23T05:13:34;6.80;;;4.63;;
21107;SDS011;10712;52.944;9.098;2022-07-23T05:16:00;9.30;;;5.45;;
21107;SDS011;10712;52.944;9.098;2022-07-23T05:18:27;5.70;;;4.93;;
21107;SDS011;10712;52.944;9.098;2022-07-23T05:20:53;6.40;;;4.53;;
21107;SDS011;10712;52.944;9.098;2022-07-23T05:23:21;10.70;;;5.30;;
21107;SDS011;10712;52.944;9.098;2022-07-23T05:25:48;6.63;;;4.35;;
21107;SDS011;10712;52.944;9.098;2022-07-23T05:28:15;6.57;;;5.50;;
21107;SDS011;10712;52.944;9.098;2022-07-23T05:30:41;7.90;;;4.55;;
21107;SDS011;10712;52.944;9.098;2022-07-23T05:33:11;4.50;;;3.40;;
21107;SDS011;10712;52.944;9.098;2022-07-23T05:35:39;6.03;;;4.50;;
21107;SDS011;10712;52.944;9.098;2022-07-23T05:38:31;4.95;;;4.07;;
21107;SDS011;10712;52.944;9.098;2022-07-23T05:40:59;4.93;;;4.28;;
21107;SDS011;10712;52.944;9.098;2022-07-23T05:43:26;5.75;;;4.15;;
21107;SDS011;10712;52.944;9.098;2022-07-23T05:45:54;6.32;;;4.20;;
21107;SDS011;10712;52.944;9.098;2022-07-23T05:48:21;6.35;;;4.30;;
21107;SDS011;10712;52.944;9.098;2022-07-23T05:51:00;8.05;;;4.13;;
21107;SDS011;10712;52.944;9.098;2022-07-23T05:53:33;3.75;;;2.83;;
21107;SDS011;10712;52.944;9.098;2022-07-23T05:56:15;3.78;;;3.40;;
21107;SDS011;10712;52.944;9.098;2022-07-23T05:58:42;6.78;;;3.63;;
21107;SDS011;10712;52.944;9.098;2022-07-23T06:01:08;7.35;;;5.00;;
21107;SDS011;10712;52.944;9.098;2022-07-23T06:03:44;6.30;;;3.55;;
21107;SDS011;10712;52.944;9.098;2022-07-23T06:06:09;6.47;;;4.00;;
21107;SDS011;10712;52.944;9.098;2022-07-23T06:08:37;4.78;;;3.47;;
21107;SDS011;10712;52.944;9.098;2022-07-23T06:11:06;5.93;;;2.80;;
21107;SDS011;10712;52.944;9.098;2022-07-23T06:13:32;2.92;;;2.45;;
21107;SDS011;10712;52.944;9.098;2022-07-23T06:15:58;7.13;;;3.97;;
21107;SDS011;10712;52.944;9.098;2022-07-23T06:18:24;5.60;;;3.08;;
21107;SDS011;10712;52.944;9.098;2022-07-23T06:20:52;4.68;;;2.53;;
21107;SDS011;10712;52.944;9.098;2022-07-23T06:23:18;4.60;;;3.00;;
21107;SDS011;10712;52.944;9.098;2022-07-23T06:25:44;7.93;;;2.60;;
21107;SDS011;10712;52.944;9.098;2022-07-23T06:28:09;3.42;;;2.50;;
21107;SDS011;10712;52.944;9.098;2022-07-23T06:30:35;4.07;;;2.58;;
21107;SDS011;10712;52.944;9.098;2022-07-23T06:33:02;2.95;;;2.63;;
21107;SDS011;10712;52.944;9.098;2022-07-23T06:35:28;4.63;;;2.50;;
21107;SDS011;10712;52.944;9.098;2022-07-23T06:37:54;5.93;;;3.30;;
21107;SDS011;10712;52.944;9.098;2022-07-23T06:40:21;4.30;;;2.35;;
21107;SDS011;10712;52.944;9.098;2022-07-23T06:42:47;3.47;;;2.17;;
21107;SDS011;10712;52.944;9.098;2022-07-23T06:45:20;3.22;;;2.58;;
21107;SDS011;10712;52.944;9.098;2022-07-23T06:47:46;8.30;;;2.97;;
21107;SDS011;10712;52.944;9.098;2022-07-23T06:50:12;6.03;;;2.30;;
21107;SDS011;10712;52.944;9.098;2022-07-23T06:52:38;4.25;;;1.80;;
21107;SDS011;10712;52.944;9.098;2022-07-23T06:55:04;7.93;;;2.15;;
21107;SDS011;10712;52.944;9.098;2022-07-23T06:57:31;2.95;;;1.90;;
21107;SDS011;10712;52.944;9.098;2022-07-23T06:59:56;3.78;;;1.70;;
21107;SDS011;10712;52.944;9.098;2022-07-23T07:02:22;7.00;;;2.28;;
21107;SDS011;10712;52.944;9.098;2022-07-23T07:04:48;5.13;;;2.00;;
21107;SDS011;10712;52.944;9.098;2022-07-23T07:07:14;6.00;;;1.75;;
21107;SDS011;10712;52.944;9.098;2022-07-23T07:09:40;4.60;;;1.30;;
21107;SDS011;10712;52.944;9.098;2022-07-23T07:12:06;2.95;;;1.02;;
21107;SDS011;10712;52.944;9.098;2022-07-23T07:14:32;4.88;;;1.20;;
21107;SDS011;10712;52.944;9.098;2022-07-23T07:16:58;2.83;;;1.33;;
21107;SDS011;10712;52.944;9.098;2022-07-23T07:19:24;2.47;;;1.52;;
21107;SDS011;10712;52.944;9.098;2022-07-23T07:21:50;5.10;;;1.23;;
21107;SDS011;10712;52.944;9.098;2022-07-23T07:24:15;2.13;;;0.80;;
21107;SDS011;10712;52.944;9.098;2022-07-23T07:26:41;3.42;;;1.13;;
21107;SDS011;10712;52.944;9.098;2022-07-23T07:29:07;2.53;;;1.08;;
21107;SDS011;10712;52.944;9.098;2022-07-23T07:31:33;2.28;;;0.88;;
21107;SDS011;10712;52.944;9.098;2022-07-23T07:33:59;3.03;;;0.80;;
21107;SDS011;10712;52.944;9.098;2022-07-23T07:36:25;2.33;;;1.23;;
21107;SDS011;10712;52.944;9.098;2022-07-23T07:38:51;6.25;;;0.98;;
21107;SDS011;10712;52.944;9.098;2022-07-23T07:41:16;1.17;;;0.80;;
21107;SDS011;10712;52.944;9.098;2022-07-23T07:43:47;2.83;;;0.90;;
21107;SDS011;10712;52.944;9.098;2022-07-23T07:46:13;2.22;;;1.80;;
21107;SDS011;10712;52.944;9.098;2022-07-23T07:48:39;5.10;;;1.60;;
21107;SDS011;10712;52.944;9.098;2022-07-23T07:51:05;1.48;;;1.38;;
21107;SDS011;10712;52.944;9.098;2022-07-23T07:53:31;0.80;;;0.80;;
21107;SDS011;10712;52.944;9.098;2022-07-23T07:55:57;2.35;;;0.73;;
21107;SDS011;10712;52.944;9.098;2022-07-23T07:58:23;1.40;;;0.70;;
21107;SDS011;10712;52.944;9.098;2022-07-23T08:00:49;1.92;;;0.85;;
21107;SDS011;10712;52.944;9.098;2022-07-23T08:03:16;1.92;;;1.00;;
21107;SDS011;10712;52.944;9.098;2022-07-23T08:05:42;1.95;;;0.80;;
21107;SDS011;10712;52.944;9.098;2022-07-23T08:08:08;2.28;;;0.95;;
21107;SDS011;10712;52.944;9.098;2022-07-23T08:10:39;3.33;;;0.73;;
21107;SDS011;10712;52.944;9.098;2022-07-23T08:13:06;2.35;;;0.70;;
21107;SDS011;10712;52.944;9.098;2022-07-23T08:15:32;1.55;;;0.70;;
21107;SDS011;10712;52.944;9.098;2022-07-23T08:17:58;1.15;;;0.60;;
21107;SDS011;10712;52.944;9.098;2022-07-23T08:20:25;1.33;;;0.57;;
21107;SDS011;10712;52.944;9.098;2022-07-23T08:22:52;2.60;;;0.95;;
21107;SDS011;10712;52.944;9.098;2022-07-23T08:25:28;1.23;;;0.80;;
21107;SDS011;10712;52.944;9.098;2022-07-23T08:28:03;2.65;;;1.17;;
21107;SDS011;10712;52.944;9.098;2022-07-23T08:30:31;2.07;;;0.80;;
21107;SDS011;10712;52.944;9.098;2022-07-23T08:33:04;1.95;;;0.68;;
21107;SDS011;10712;52.944;9.098;2022-07-23T08:35:40;1.02;;;0.60;;
21107;SDS011;10712;52.944;9.098;2022-07-23T08:38:12;3.55;;;0.90;;
21107;SDS011;10712;52.944;9.098;2022-07-23T08:40:48;2.53;;;0.93;;
21107;SDS011;10712;52.944;9.098;2022-07-23T08:45:46;2.92;;;0.77;;
21107;SDS011;10712;52.944;9.098;2022-07-23T08:48:17;2.88;;;0.75;;
21107;SDS011;10712;52.944;9.098;2022-07-23T08:50:52;1.70;;;0.85;;
21107;SDS011;10712;52.944;9.098;2022-07-23T08:55:48;0.88;;;0.52;;
21107;SDS011;10712;52.944;9.098;2022-07-23T08:58:19;1.20;;;0.70;;
21107;SDS011;10712;52.944;9.098;2022-07-23T09:00:46;0.80;;;0.80;;
21107;SDS011;10712;52.944;9.098;2022-07-23T09:03:23;1.75;;;0.60;;
21107;SDS011;10712;52.944;9.098;2022-07-23T09:05:52;2.58;;;0.60;;
21107;SDS011;10712;52.944;9.098;2022-07-23T09:08:23;2.70;;;0.93;;
21107;SDS011;10712;52.944;9.098;2022-07-23T09:11:06;2.63;;;1.05;;
21107;SDS011;10712;52.944;9.098;2022-07-23T09:16:29;1.08;;;0.77;;
21107;SDS011;10712;52.944;9.098;2022-07-23T09:19:06;3.08;;;0.90;;
21107;SDS011;10712;52.944;9.098;2022-07-23T09:21:36;3.20;;;0.90;;
21107;SDS011;10712;52.944;9.098;2022-07-23T09:24:08;0.80;;;0.80;;
21107;SDS011;10712;52.944;9.098;2022-07-23T09:26:37;1.55;;;0.80;;
21107;SDS011;10712;52.944;9.098;2022-07-23T09:29:10;1.80;;;0.65;;
21107;SDS011;10712;52.944;9.098;2022-07-23T09:31:47;2.53;;;1.02;;
21107;SDS011;10712;52.944;9.098;2022-07-23T09:34:16;2.47;;;1.05;;
21107;SDS011;10712;52.944;9.098;2022-07-23T09:36:51;2.90;;;0.90;;
21107;SDS011;10712;52.944;9.098;2022-07-23T09:39:30;2.08;;;1.02;;
21107;SDS011;10712;52.944;9.098;2022-07-23T09:41:59;3.35;;;0.95;;
21107;SDS011;10712;52.944;9.098;2022-07-23T09:44:45;3.72;;;1.02;;
21107;SDS011;10712;52.944;9.098;2022-07-23T09:47:14;1.42;;;0.98;;
21107;SDS011;10712;52.944;9.098;2022-07-23T09:49:40;3.53;;;1.15;;
21107;SDS011;10712;52.944;9.098;2022-07-23T09:52:26;0.88;;;0.80;;
21107;SDS011;10712;52.944;9.098;2022-07-23T09:57:25;1.00;;;0.70;;
21107;SDS011;10712;52.944;9.098;2022-07-23T09:59:52;0.80;;;0.80;;
21107;SDS011;10712;52.944;9.098;2022-07-23T10:02:23;1.33;;;0.90;;
21107;SDS011;10712;52.944;9.098;2022-07-23T10:05:10;0.85;;;0.65;;
21107;SDS011;10712;52.944;9.098;2022-07-23T10:08:04;2.97;;;1.00;;
21107;SDS011;10712;52.944;9.098;2022-07-23T10:10:45;2.15;;;0.80;;
21107;SDS011;10712;52.944;9.098;2022-07-23T10:13:44;1.52;;;0.82;;
21107;SDS011;10712;52.944;9.098;2022-07-23T10:16:40;2.03;;;1.08;;
21107;SDS011;10712;52.944;9.098;2022-07-23T10:19:06;1.98;;;0.70;;
21107;SDS011;10712;52.944;9.098;2022-07-23T10:21:40;2.67;;;0.70;;
21107;SDS011;10712;52.944;9.098;2022-07-23T10:24:20;3.58;;;0.52;;
21107;SDS011;10712;52.944;9.098;2022-07-23T10:30:33;0.90;;;0.40;;
21107;SDS011;10712;52.944;9.098;2022-07-23T10:36:44;0.70;;;0.47;;
21107;SDS011;10712;52.944;9.098;2022-07-23T10:39:24;2.17;;;0.52;;
21107;SDS011;10712;52.944;9.098;2022-07-23T10:42:14;12.45;;;0.63;;
21107;SDS011;10712;52.944;9.098;2022-07-23T10:47:34;1.65;;;0.60;;
21107;SDS011;10712;52.944;9.098;2022-07-23T10:50:21;1.95;;;0.40;;
21107;SDS011;10712;52.944;9.098;2022-07-23T10:58:00;4.18;;;0.57;;
21107;SDS011;10712;52.944;9.098;2022-07-23T11:00:30;1.15;;;0.40;;
21107;SDS011;10712;52.944;9.098;2022-07-23T11:02:59;2.08;;;0.40;;
21107;SDS011;10712;52.944;9.098;2022-07-23T11:05:42;0.30;;;0.30;;
21107;SDS011;10712;52.944;9.098;2022-07-23T11:08:11;2.25;;;0.50;;
21107;SDS011;10712;52.944;9.098;2022-07-23T11:13:38;0.30;;;0.30;;
21107;SDS011;10712;52.944;9.098;2022-07-23T11:18:59;1.40;;;0.50;;
21107;SDS011;10712;52.944;9.098;2022-07-23T11:24:07;0.40;;;0.40;;
21107;SDS011;10712;52.944;9.098;2022-07-23T11:26:55;1.02;;;0.30;;
21107;SDS011;10712;52.944;9.098;2022-07-23T11:36:59;1.50;;;0.20;;
21107;SDS011;10712;52.944;9.098;2022-07-23T11:39:28;2.65;;;0.45;;
21107;SDS011;10712;52.944;9.098;2022-07-23T11:41:56;1.65;;;0.30;;
21107;SDS011;10712;52.944;9.098;2022-07-23T11:44:32;1.75;;;0.50;;
21107;SDS011;10712;52.944;9.098;2022-07-23T11:47:04;2.60;;;0.45;;
21107;SDS011;10712;52.944;9.098;2022-07-23T11:49:34;1.10;;;0.30;;
21107;SDS011;10712;52.944;9.098;2022-07-23T11:52:05;1.73;;;0.45;;
21107;SDS011;10712;52.944;9.098;2022-07-23T11:54:35;1.58;;;0.45;;
21107;SDS011;10712;52.944;9.098;2022-07-23T11:57:12;1.08;;;0.43;;
21107;SDS011;10712;52.944;9.098;2022-07-23T11:59:38;1.63;;;0.30;;
21107;SDS011;10712;52.944;9.098;2022-07-23T12:02:06;0.88;;;0.47;;
21107;SDS011;10712;52.944;9.098;2022-07-23T12:04:38;0.35;;;0.30;;
21107;SDS011;10712;52.944;9.098;2022-07-23T12:07:27;0.82;;;0.45;;
21107;SDS011;10712;52.944;9.098;2022-07-23T12:09:59;3.58;;;0.50;;
21107;SDS011;10712;52.944;9.098;2022-07-23T12:12:37;2.85;;;0.68;;
21107;SDS011;10712;52.944;9.098;2022-07-23T12:15:06;1.58;;;0.50;;
21107;SDS011;10712;52.944;9.098;2022-07-23T12:17:35;0.73;;;0.43;;
21107;SDS011;10712;52.944;9.098;2022-07-23T12:20:04;0.20;;;0.20;;
21107;SDS011;10712;52.944;9.098;2022-07-23T12:22:40;0.93;;;0.30;;
21107;SDS011;10712;52.944;9.098;2022-07-23T12:25:13;0.93;;;0.28;;
21107;SDS011;10712;52.944;9.098;2022-07-23T12:27:46;0.73;;;0.20;;
21107;SDS011;10712;52.944;9.098;2022-07-23T12:30:39;0.98;;;0.30;;
21107;SDS011;10712;52.944;9.098;2022-07-23T12:33:21;0.68;;;0.35;;
21107;SDS011;10712;52.944;9.098;2022-07-23T12:35:49;0.40;;;0.32;;
21107;SDS011;10712;52.944;9.098;2022-07-23T12:38:18;2.92;;;0.40;;
21107;SDS011;10712;52.944;9.098;2022-07-23T12:40:53;1.15;;;0.30;;
21107;SDS011;10712;52.944;9.098;2022-07-23T12:43:28;4.10;;;0.55;;
21107;SDS011;10712;52.944;9.098;2022-07-23T12:46:04;1.65;;;0.52;;
21107;SDS011;10712;52.944;9.098;2022-07-23T12:48:37;1.85;;;0.30;;
21107;SDS011;10712;52.944;9.098;2022-07-23T12:51:16;9.57;;;0.57;;
21107;SDS011;10712;52.944;9.098;2022-07-23T12:53:53;1.75;;;0.40;;
21107;SDS011;10712;52.944;9.098;2022-07-23T12:56:29;0.73;;;0.40;;
21107;SDS011;10712;52.944;9.098;2022-07-23T13:01:36;1.88;;;0.45;;
21107;SDS011;10712;52.944;9.098;2022-07-23T13:04:10;3.55;;;0.75;;
21107;SDS011;10712;52.944;9.098;2022-07-23T13:06:47;1.38;;;0.73;;
21107;SDS011;10712;52.944;9.098;2022-07-23T13:09:19;1.02;;;0.50;;
21107;SDS011;10712;52.944;9.098;2022-07-23T13:11:47;0.50;;;0.30;;
21107;SDS011;10712;52.944;9.098;2022-07-23T13:14:15;0.40;;;0.40;;
21107;SDS011;10712;52.944;9.098;2022-07-23T13:16:44;1.40;;;0.55;;
21107;SDS011;10712;52.944;9.098;2022-07-23T13:19:11;0.88;;;0.40;;
21107;SDS011;10712;52.944;9.098;2022-07-23T13:21:38;0.55;;;0.50;;
21107;SDS011;10712;52.944;9.098;2022-07-23T13:24:06;2.08;;;0.57;;
21107;SDS011;10712;52.944;9.098;2022-07-23T13:26:34;1.05;;;0.50;;
21107;SDS011;10712;52.944;9.098;2022-07-23T13:29:00;0.30;;;0.30;;
21107;SDS011;10712;52.944;9.098;2022-07-23T13:31:26;1.65;;;0.30;;
21107;SDS011;10712;52.944;9.098;2022-07-23T13:33:52;1.05;;;0.38;;
21107;SDS011;10712;52.944;9.098;2022-07-23T13:36:18;0.45;;;0.20;;
21107;SDS011;10712;52.944;9.098;2022-07-23T13:38:45;0.20;;;0.20;;
21107;SDS011;10712;52.944;9.098;2022-07-23T13:41:13;0.57;;;0.43;;
21107;SDS011;10712;52.944;9.098;2022-07-23T13:43:43;0.75;;;0.32;;
21107;SDS011;10712;52.944;9.098;2022-07-23T13:46:09;0.73;;;0.30;;
21107;SDS011;10712;52.944;9.098;2022-07-23T13:48:35;0.80;;;0.32;;
21107;SDS011;10712;52.944;9.098;2022-07-23T13:51:01;0.40;;;0.30;;
21107;SDS011;10712;52.944;9.098;2022-07-23T13:53:27;1.17;;;0.30;;
21107;SDS011;10712;52.944;9.098;2022-07-23T13:55:53;0.73;;;0.40;;
21107;SDS011;10712;52.944;9.098;2022-07-23T13:58:19;0.82;;;0.40;;
21107;SDS011;10712;52.944;9.098;2022-07-23T14:00:48;0.50;;;0.20;;
21107;SDS011;10712;52.944;9.098;2022-07-23T14:03:17;0.40;;;0.25;;
21107;SDS011;10712;52.944;9.098;2022-07-23T14:05:48;1.00;;;0.40;;
21107;SDS011;10712;52.944;9.098;2022-07-23T14:08:14;0.70;;;0.40;;
21107;SDS011;10712;52.944;9.098;2022-07-23T14:10:41;1.65;;;0.32;;
21107;SDS011;10712;52.944;9.098;2022-07-23T14:13:06;0.57;;;0.30;;
21107;SDS011;10712;52.944;9.098;2022-07-23T14:15:32;5.47;;;0.38;;
21107;SDS011;10712;52.944;9.098;2022-07-23T14:17:58;0.28;;;0.25;;
21107;SDS011;10712;52.944;9.098;2022-07-23T14:20:24;1.08;;;0.22;;
21107;SDS011;10712;52.944;9.098;2022-07-23T14:22:51;3.38;;;0.50;;
21107;SDS011;10712;52.944;9.098;2022-07-23T14:25:20;1.30;;;0.40;;
21107;SDS011;10712;52.944;9.098;2022-07-23T14:27:46;0.82;;;0.57;;
21107;SDS011;10712;52.944;9.098;2022-07-23T14:30:13;0.32;;;0.20;;
21107;SDS011;10712;52.944;9.098;2022-07-23T14:32:40;0.93;;;0.40;;
21107;SDS011;10712;52.944;9.098;2022-07-23T14:35:06;0.68;;;0.40;;
21107;SDS011;10712;52.944;9.098;2022-07-23T14:37:32;1.05;;;0.50;;
21107;SDS011;10712;52.944;9.098;2022-07-23T14:39:58;1.58;;;0.25;;
21107;SDS011;10712;52.944;9.098;2022-07-23T14:42:24;0.30;;;0.20;;
21107;SDS011;10712;52.944;9.098;2022-07-23T14:44:51;3.80;;;0.80;;
21107;SDS011;10712;52.944;9.098;2022-07-23T14:47:16;1.83;;;0.60;;
21107;SDS011;10712;52.944;9.098;2022-07-23T14:49:43;0.40;;;0.40;;
21107;SDS011;10712;52.944;9.098;2022-07-23T14:52:09;0.68;;;0.30;;
21107;SDS011;10712;52.944;9.098;2022-07-23T14:54:35;1.02;;;0.40;;
21107;SDS011;10712;52.944;9.098;2022-07-23T14:57:02;4.00;;;0.52;;
21107;SDS011;10712;52.944;9.098;2022-07-23T14:59:29;1.33;;;0.52;;
21107;SDS011;10712;52.944;9.098;2022-07-23T15:01:55;1.50;;;0.52;;
21107;SDS011;10712;52.944;9.098;2022-07-23T15:04:22;2.28;;;0.40;;
21107;SDS011;10712;52.944;9.098;2022-07-23T15:06:49;2.47;;;0.57;;
21107;SDS011;10712;52.944;9.098;2022-07-23T15:09:16;1.83;;;0.60;;
21107;SDS011;10712;52.944;9.098;2022-07-23T15:11:41;0.95;;;0.50;;
21107;SDS011;10712;52.944;9.098;2022-07-23T15:14:08;0.55;;;0.30;;
21107;SDS011;10712;52.944;9.098;2022-07-23T15:16:34;2.03;;;0.55;;
21107;SDS011;10712;52.944;9.098;2022-07-23T15:19:01;0.80;;;0.40;;
21107;SDS011;10712;52.944;9.098;2022-07-23T15:21:29;0.38;;;0.30;;
21107;SDS011;10712;52.944;9.098;2022-07-23T15:23:56;0.77;;;0.30;;
21107;SDS011;10712;52.944;9.098;2022-07-23T15:26:24;1.27;;;0.30;;
21107;SDS011;10712;52.944;9.098;2022-07-23T15:28:52;0.70;;;0.50;;
21107;SDS011;10712;52.944;9.098;2022-07-23T15:31:18;2.17;;;0.50;;
21107;SDS011;10712;52.944;9.098;2022-07-23T15:33:44;0.73;;;0.45;;
21107;SDS011;10712;52.944;9.098;2022-07-23T15:36:10;0.60;;;0.40;;
21107;SDS011;10712;52.944;9.098;2022-07-23T15:38:35;1.85;;;0.30;;
21107;SDS011;10712;52.944;9.098;2022-07-23T15:41:01;1.33;;;0.40;;
21107;SDS011;10712;52.944;9.098;2022-07-23T15:43:28;0.82;;;0.43;;